createdAt,value
2023-02-15T00:01:52.072Z,24.53
2023-02-15T00:04:21.047Z,23.63
2023-02-15T00:06:48.364Z,22.53
2023-02-15T00:09:15.503Z,22.50
2023-02-15T00:11:50.949Z,22.17
2023-02-15T00:14:20.572Z,24.50
2023-02-15T00:16:48.168Z,25.53
2023-02-15T00:19:16.800Z,22.80
2023-02-15T00:21:44.204Z,22.17
2023-02-15T00:24:12.792Z,23.50
2023-02-15T00:26:40.802Z,24.17
2023-02-15T00:29:08.032Z,24.40
2023-02-15T00:31:35.698Z,23.47
2023-02-15T00:34:04.115Z,22.83
2023-02-15T00:36:31.496Z,23.03
2023-02-15T00:38:58.854Z,24.57
2023-02-15T00:41:26.269Z,22.63
2023-02-15T00:43:53.408Z,23.03
2023-02-15T00:46:20.725Z,21.97
2023-02-15T00:48:48.001Z,24.87
2023-02-15T00:51:15.321Z,23.30
2023-02-15T00:53:42.511Z,24.20
2023-02-15T00:56:09.670Z,25.37
2023-02-15T00:58:36.794Z,24.83
2023-02-15T01:01:06.351Z,25.43
2023-02-15T01:03:33.544Z,26.57
2023-02-15T01:06:01.084Z,23.33
2023-02-15T01:08:28.585Z,24.87
2023-02-15T01:10:56.169Z,25.70
2023-02-15T01:13:23.564Z,23.50
2023-02-15T01:15:55.692Z,24.47
2023-02-15T01:18:23.418Z,24.50
2023-02-15T01:20:50.827Z,26.77
2023-02-15T01:23:18.071Z,25.03
2023-02-15T01:25:45.221Z,23.73
2023-02-15T01:28:12.409Z,24.27
2023-02-15T01:30:39.579Z,24.43
2023-02-15T01:33:06.732Z,26.03
2023-02-15T01:35:34.139Z,25.37
2023-02-15T01:38:01.297Z,27.10
2023-02-15T01:40:28.476Z,23.33
2023-02-15T01:42:56.799Z,25.47
2023-02-15T01:45:31.345Z,25.23
2023-02-15T01:48:03.065Z,25.30
2023-02-15T01:50:33.381Z,23.67
2023-02-15T01:53:03.490Z,24.17
2023-02-15T01:55:35.007Z,24.93
2023-02-15T01:58:02.355Z,23.47
2023-02-15T02:00:30.024Z,24.03
2023-02-15T02:02:58.532Z,23.40
2023-02-15T02:05:25.956Z,26.13
2023-02-15T02:07:53.873Z,25.60
2023-02-15T02:10:24.063Z,24.47
2023-02-15T02:12:52.709Z,24.17
2023-02-15T02:15:19.867Z,22.77
2023-02-15T02:17:49.793Z,23.00
2023-02-15T02:20:17.624Z,23.03
2023-02-15T02:22:57.157Z,24.20
2023-02-15T02:25:24.269Z,23.83
2023-02-15T02:27:56.127Z,23.80
2023-02-15T02:30:42.156Z,24.37
2023-02-15T02:33:28.062Z,24.53
2023-02-15T02:35:56.412Z,25.87
2023-02-15T02:38:23.557Z,23.33
2023-02-15T02:40:56.654Z,22.60
2023-02-15T02:43:29.043Z,23.70
2023-02-15T02:46:02.636Z,24.60
2023-02-15T02:48:32.381Z,27.57
2023-02-15T02:50:59.553Z,22.80
2023-02-15T02:53:27.890Z,26.13
2023-02-15T02:55:59.583Z,24.13
2023-02-15T02:58:45.680Z,23.43
2023-02-15T03:01:18.835Z,25.37
2023-02-15T03:03:48.019Z,27.10
2023-02-15T03:06:20.658Z,26.10
2023-02-15T03:08:53.107Z,24.43
2023-02-15T03:11:20.253Z,25.53
2023-02-15T03:13:49.150Z,25.03
2023-02-15T03:16:28.366Z,26.17
2023-02-15T03:19:08.294Z,27.60
2023-02-15T03:21:42.014Z,27.53
2023-02-15T03:24:11.405Z,26.77
2023-02-15T03:26:39.360Z,27.17
2023-02-15T03:29:07.323Z,27.63
2023-02-15T03:31:36.587Z,29.83
2023-02-15T03:34:09.435Z,28.20
2023-02-15T03:36:45.967Z,27.03
2023-02-15T03:39:21.301Z,26.63
2023-02-15T03:41:51.821Z,25.80
2023-02-15T03:44:26.953Z,26.30
2023-02-15T03:46:58.258Z,30.33
2023-02-15T03:49:31.425Z,28.17
2023-02-15T03:52:00.485Z,28.47
2023-02-15T03:54:44.510Z,27.70
2023-02-15T03:57:40.534Z,27.10
2023-02-15T04:00:46.688Z,26.20
2023-02-15T04:03:16.606Z,30.53
2023-02-15T04:05:44.490Z,29.23
2023-02-15T04:08:11.929Z,29.10
2023-02-15T04:10:54.365Z,33.00
2023-02-15T04:13:22.037Z,31.07
2023-02-15T04:16:05.320Z,28.17
2023-02-15T04:18:56.085Z,32.30
2023-02-15T04:21:43.172Z,32.17
2023-02-15T04:24:29.333Z,32.27
2023-02-15T04:26:56.825Z,28.97
2023-02-15T04:29:24.799Z,32.00
2023-02-15T04:31:52.413Z,34.40
2023-02-15T04:34:19.659Z,33.30
2023-02-15T04:36:46.892Z,30.63
2023-02-15T04:39:14.616Z,34.73
2023-02-15T04:41:41.978Z,32.43
2023-02-15T04:44:09.290Z,32.83
2023-02-15T04:46:36.480Z,34.17
2023-02-15T04:49:03.832Z,34.80
2023-02-15T04:51:31.011Z,33.73
2023-02-15T04:53:58.144Z,33.30
2023-02-15T04:56:25.274Z,33.57
2023-02-15T04:58:52.483Z,33.80
2023-02-15T05:01:19.840Z,32.87
2023-02-15T05:03:46.991Z,35.63
2023-02-15T05:06:14.116Z,36.27
2023-02-15T05:08:41.238Z,34.43
2023-02-15T05:11:08.397Z,33.63
2023-02-15T05:13:35.513Z,34.77
2023-02-15T05:16:03.157Z,33.27
2023-02-15T05:18:30.501Z,32.93
2023-02-15T05:20:57.645Z,36.73
2023-02-15T05:23:24.836Z,37.87
2023-02-15T05:26:11.071Z,35.63
2023-02-15T05:28:42.060Z,34.00
2023-02-15T05:31:16.857Z,32.97
2023-02-15T05:33:44.492Z,34.50
2023-02-15T05:36:12.184Z,34.63
2023-02-15T05:38:39.393Z,36.93
2023-02-15T05:41:10.335Z,32.20
2023-02-15T05:43:37.864Z,34.67
2023-02-15T05:46:05.730Z,33.90
2023-02-15T05:48:33.531Z,33.47
2023-02-15T05:51:00.667Z,34.90
2023-02-15T05:53:28.254Z,36.20
2023-02-15T05:56:00.310Z,31.63
2023-02-15T05:58:28.399Z,34.43
2023-02-15T06:00:55.822Z,30.80
2023-02-15T06:03:23.760Z,34.00
2023-02-15T06:05:51.061Z,33.40
2023-02-15T06:08:18.262Z,32.93
2023-02-15T06:10:47.167Z,31.97
2023-02-15T06:13:14.323Z,33.63
2023-02-15T06:15:41.465Z,35.33
2023-02-15T06:18:08.808Z,29.33
2023-02-15T06:20:35.980Z,31.87
2023-02-15T06:23:03.140Z,32.10
2023-02-15T06:25:30.362Z,30.73
2023-02-15T06:27:57.556Z,31.97
2023-02-15T06:30:24.769Z,31.30
2023-02-15T06:32:52.034Z,30.10
2023-02-15T06:35:19.204Z,31.10
2023-02-15T06:37:49.370Z,31.30
2023-02-15T06:40:16.945Z,29.67
2023-02-15T06:42:44.423Z,27.80
2023-02-15T06:45:12.112Z,32.33
2023-02-15T06:47:39.334Z,31.80
2023-02-15T06:50:07.512Z,28.77
2023-02-15T06:52:34.772Z,31.73
2023-02-15T06:55:02.073Z,32.37
2023-02-15T06:57:29.255Z,30.00
2023-02-15T06:59:56.547Z,32.10
2023-02-15T07:02:23.658Z,29.27
2023-02-15T07:04:50.788Z,29.07
2023-02-15T07:07:18.058Z,31.50
2023-02-15T07:09:45.169Z,30.47
2023-02-15T07:12:30.910Z,28.97
2023-02-15T07:14:59.242Z,32.47
2023-02-15T07:17:36.846Z,31.50
2023-02-15T07:20:09.019Z,33.03
2023-02-15T07:22:37.282Z,30.87
2023-02-15T07:25:08.840Z,30.13
2023-02-15T07:27:36.173Z,31.10
2023-02-15T07:30:03.933Z,32.13
2023-02-15T07:32:31.667Z,30.77
2023-02-15T07:34:59.247Z,30.53
2023-02-15T07:37:26.861Z,32.53
2023-02-15T07:39:54.005Z,30.40
2023-02-15T07:42:22.086Z,31.20
2023-02-15T07:44:49.276Z,32.63
2023-02-15T07:47:16.424Z,31.67
2023-02-15T07:49:43.567Z,29.23
2023-02-15T07:52:10.722Z,31.47
2023-02-15T07:54:37.890Z,31.07
2023-02-15T07:57:05.044Z,28.10
2023-02-15T07:59:32.241Z,32.30
2023-02-15T08:01:59.444Z,31.80
2023-02-15T08:04:26.630Z,31.70
2023-02-15T08:06:55.649Z,33.10
2023-02-15T08:09:23.145Z,31.77
2023-02-15T08:11:50.350Z,31.93
2023-02-15T08:14:21.393Z,33.43
2023-02-15T08:16:50.382Z,32.90
2023-02-15T08:19:17.657Z,33.70
2023-02-15T08:21:54.960Z,35.50
2023-02-15T08:24:23.238Z,33.60
2023-02-15T08:26:50.922Z,32.67
2023-02-15T08:29:19.513Z,32.73
2023-02-15T08:31:47.098Z,33.67
2023-02-15T08:34:16.676Z,34.93
2023-02-15T08:36:45.979Z,34.37
2023-02-15T08:39:13.710Z,32.33
2023-02-15T08:41:43.187Z,34.50
2023-02-15T08:44:11.665Z,30.97
2023-02-15T08:46:39.988Z,32.07
2023-02-15T08:49:07.434Z,34.07
2023-02-15T08:51:35.701Z,32.30
2023-02-15T08:54:04.568Z,34.40
2023-02-15T08:56:34.044Z,30.40
2023-02-15T08:59:01.559Z,32.60
2023-02-15T09:01:29.984Z,32.43
2023-02-15T09:03:58.597Z,33.63
2023-02-15T09:06:26.090Z,33.50
2023-02-15T09:08:53.486Z,30.87
2023-02-15T09:11:25.980Z,30.93
2023-02-15T09:13:53.438Z,32.23
2023-02-15T09:16:20.992Z,31.13
2023-02-15T09:18:48.149Z,32.67
2023-02-15T09:21:16.747Z,39.30
2023-02-15T09:23:45.459Z,32.93
2023-02-15T09:26:16.755Z,31.40
2023-02-15T09:28:44.262Z,33.80
2023-02-15T09:31:12.937Z,31.13
2023-02-15T09:33:41.073Z,34.63
2023-02-15T09:36:15.070Z,33.00
2023-02-15T09:38:42.627Z,31.10
2023-02-15T09:41:12.824Z,32.03
2023-02-15T09:43:39.932Z,31.37
2023-02-15T09:46:14.902Z,29.57
2023-02-15T09:48:43.198Z,32.77
2023-02-15T09:51:25.002Z,30.87
2023-02-15T09:54:05.034Z,31.13
2023-02-15T09:56:39.954Z,33.97
2023-02-15T09:59:24.027Z,29.80
2023-02-15T10:02:09.870Z,34.17
2023-02-15T10:04:55.945Z,30.23
2023-02-15T10:07:37.770Z,34.13
2023-02-15T10:10:27.008Z,31.67
2023-02-15T10:13:08.674Z,32.17
2023-02-15T10:15:59.042Z,33.97
2023-02-15T10:18:46.826Z,35.70
2023-02-15T10:21:40.362Z,32.17
2023-02-15T10:24:15.880Z,30.33
2023-02-15T10:26:43.012Z,33.73
2023-02-15T10:29:28.934Z,31.97
2023-02-15T10:31:56.214Z,29.87
2023-02-15T10:34:42.254Z,33.57
2023-02-15T10:37:19.826Z,34.20
2023-02-15T10:39:49.987Z,36.13
2023-02-15T10:42:22.327Z,33.20
2023-02-15T10:45:08.650Z,32.50
2023-02-15T10:47:36.546Z,33.07
2023-02-15T10:50:17.862Z,31.47
2023-02-15T10:52:47.822Z,38.60
2023-02-15T10:55:20.201Z,33.00
2023-02-15T10:58:06.185Z,29.90
2023-02-15T11:00:40.797Z,31.20
2023-02-15T11:03:28.199Z,29.70
2023-02-15T11:06:01.532Z,29.57
2023-02-15T11:08:31.384Z,32.93
2023-02-15T11:11:07.829Z,31.87
2023-02-15T11:13:39.973Z,29.47
2023-02-15T11:16:24.525Z,29.37
2023-02-15T11:18:54.675Z,30.07
2023-02-15T11:21:39.864Z,28.67
2023-02-15T11:24:12.114Z,29.83
2023-02-15T11:26:56.175Z,27.20
2023-02-15T11:29:28.722Z,29.67
2023-02-15T11:31:57.412Z,30.23
2023-02-15T11:34:24.608Z,29.40
2023-02-15T11:36:53.358Z,30.60
2023-02-15T11:39:21.572Z,29.10
2023-02-15T11:41:52.995Z,32.93
2023-02-15T11:44:28.858Z,28.10
2023-02-15T11:46:55.980Z,30.67
2023-02-15T11:49:33.547Z,31.07
2023-02-15T11:52:02.996Z,31.77
2023-02-15T11:54:33.150Z,31.90
2023-02-15T11:57:04.793Z,34.63
2023-02-15T11:59:34.341Z,33.03
2023-02-15T12:02:01.472Z,34.80
2023-02-15T12:04:31.571Z,32.27
2023-02-15T12:07:18.773Z,35.50
2023-02-15T12:10:08.175Z,37.53
2023-02-15T12:12:36.569Z,33.37
2023-02-15T12:15:05.965Z,35.40
2023-02-15T12:17:35.140Z,38.57
2023-02-15T12:20:08.533Z,35.57
2023-02-15T12:22:37.629Z,33.30
2023-02-15T12:25:23.569Z,34.67
2023-02-15T12:27:51.215Z,34.83
2023-02-15T12:30:21.851Z,38.70
2023-02-15T12:32:51.611Z,35.87
2023-02-15T12:35:38.785Z,36.07
2023-02-15T12:38:05.917Z,35.17
2023-02-15T12:40:35.023Z,40.13
2023-02-15T12:43:09.039Z,36.20
2023-02-15T12:45:37.785Z,34.63
2023-02-15T12:48:10.958Z,33.33
2023-02-15T12:50:38.291Z,33.37
2023-02-15T12:53:23.714Z,32.87
2023-02-15T12:55:52.801Z,34.17
2023-02-15T12:58:20.168Z,35.97
2023-02-15T13:00:47.956Z,34.53
2023-02-15T13:03:24.814Z,33.63
2023-02-15T13:05:56.137Z,34.87
2023-02-15T13:08:30.906Z,32.90
2023-02-15T13:11:00.370Z,34.27
2023-02-15T13:13:29.767Z,32.23
2023-02-15T13:16:01.553Z,34.33
2023-02-15T13:18:31.744Z,33.20
2023-02-15T13:21:01.364Z,33.77
2023-02-15T13:23:30.126Z,41.43
2023-02-15T13:25:59.437Z,34.07
2023-02-15T13:28:28.907Z,33.63
2023-02-15T13:30:56.699Z,37.27
2023-02-15T13:33:38.071Z,34.50
2023-02-15T13:36:22.846Z,34.70
2023-02-15T13:39:09.354Z,37.53
2023-02-15T13:41:47.307Z,36.20
2023-02-15T13:44:34.676Z,32.03
2023-02-15T13:47:18.759Z,38.03
2023-02-15T13:49:45.893Z,35.67
2023-02-15T13:52:21.994Z,34.87
2023-02-15T13:54:55.126Z,31.13
2023-02-15T13:57:44.319Z,33.03
2023-02-15T14:00:14.782Z,36.53
2023-02-15T14:02:45.261Z,36.60
2023-02-15T14:05:31.817Z,34.17
2023-02-15T14:07:58.980Z,31.83
2023-02-15T14:10:33.461Z,38.93
2023-02-15T14:13:20.513Z,31.50
2023-02-15T14:15:57.584Z,32.07
2023-02-15T14:18:43.577Z,35.20
2023-02-15T14:21:19.919Z,31.57
2023-02-15T14:23:50.140Z,32.23
2023-02-15T14:26:20.074Z,34.77
2023-02-15T14:28:53.424Z,32.73
2023-02-15T14:31:23.388Z,30.70
2023-02-15T14:33:58.444Z,27.50
2023-02-15T14:36:27.508Z,28.43
2023-02-15T14:39:33.556Z,28.93
2023-02-15T14:42:16.276Z,43.80
2023-02-15T14:44:57.757Z,29.27
2023-02-15T14:47:28.918Z,30.17
2023-02-15T14:49:56.057Z,32.80
2023-02-15T14:52:23.198Z,30.57
2023-02-15T14:54:50.310Z,27.87
2023-02-15T14:57:17.724Z,30.63
2023-02-15T14:59:44.835Z,28.70
2023-02-15T15:02:15.600Z,30.90
2023-02-15T15:05:01.475Z,29.97
2023-02-15T15:07:30.017Z,29.80
2023-02-15T15:10:02.324Z,28.57
2023-02-15T15:12:36.581Z,28.00
2023-02-15T15:15:04.912Z,29.13
2023-02-15T15:17:37.533Z,26.97
2023-02-15T15:20:08.416Z,28.73
2023-02-15T15:22:36.373Z,33.40
2023-02-15T15:25:11.732Z,30.53
2023-02-15T15:27:45.994Z,28.83
2023-02-15T15:30:16.365Z,28.77
2023-02-15T15:32:52.848Z,28.10
2023-02-15T15:35:39.082Z,26.00
2023-02-15T15:38:13.218Z,26.87
2023-02-15T15:40:52.013Z,26.67
2023-02-15T15:43:37.911Z,28.50
2023-02-15T15:46:15.180Z,28.07
2023-02-15T15:48:43.113Z,32.73
2023-02-15T15:51:19.499Z,34.00
2023-02-15T15:53:49.864Z,26.50
2023-02-15T15:56:19.354Z,30.03
2023-02-15T15:58:50.404Z,29.47
2023-02-15T16:01:17.633Z,28.53
2023-02-15T16:03:52.164Z,31.57
2023-02-15T16:06:39.828Z,32.30
2023-02-15T16:09:13.129Z,32.03
2023-02-15T16:11:43.516Z,31.17
2023-02-15T16:14:13.943Z,31.50
2023-02-15T16:16:41.382Z,28.43
2023-02-15T16:19:18.689Z,31.83
2023-02-15T16:21:45.908Z,32.20
2023-02-15T16:24:23.976Z,35.20
2023-02-15T16:27:16.031Z,31.40
2023-02-15T16:29:43.201Z,33.67
2023-02-15T16:32:26.749Z,32.77
2023-02-15T16:34:58.123Z,30.67
2023-02-15T16:37:28.187Z,33.47
2023-02-15T16:39:56.736Z,37.13
2023-02-15T16:42:24.243Z,33.87
2023-02-15T16:44:53.399Z,37.40
2023-02-15T16:47:26.442Z,36.53
2023-02-15T16:49:55.284Z,38.47
2023-02-15T16:52:24.257Z,39.17
2023-02-15T16:54:53.688Z,42.83
2023-02-15T16:57:22.676Z,43.03
2023-02-15T16:59:51.317Z,38.10
2023-02-15T17:02:43.187Z,40.03
2023-02-15T17:05:14.545Z,38.13
2023-02-15T17:07:42.462Z,41.67
2023-02-15T17:10:28.999Z,38.77
2023-02-15T17:12:56.807Z,40.60
2023-02-15T17:15:31.909Z,41.27
2023-02-15T17:18:00.423Z,37.30
2023-02-15T17:20:27.793Z,38.73
2023-02-15T17:22:55.005Z,39.50
2023-02-15T17:25:25.440Z,38.30
2023-02-15T17:27:54.558Z,39.23
2023-02-15T17:30:28.411Z,42.70
2023-02-15T17:32:57.624Z,45.67
2023-02-15T17:35:26.123Z,44.50
2023-02-15T17:38:02.463Z,46.33
2023-02-15T17:40:36.950Z,41.63
2023-02-15T17:43:04.163Z,40.47
2023-02-15T17:45:36.097Z,44.53
2023-02-15T17:48:04.265Z,47.23
2023-02-15T17:50:31.510Z,45.20
2023-02-15T17:52:59.420Z,41.97
2023-02-15T17:55:35.580Z,43.40
2023-02-15T17:58:03.861Z,40.30
2023-02-15T18:00:50.923Z,47.43
2023-02-15T18:03:37.148Z,42.27
2023-02-15T18:06:22.943Z,49.23
2023-02-15T18:09:10.928Z,44.83
2023-02-15T18:11:40.064Z,47.00
2023-02-15T18:14:08.329Z,49.97
2023-02-15T18:16:36.959Z,40.53
2023-02-15T18:19:05.667Z,45.00
2023-02-15T18:21:34.051Z,51.90
2023-02-15T18:24:01.268Z,47.23
2023-02-15T18:26:29.289Z,48.20
2023-02-15T18:28:56.500Z,45.17
2023-02-15T18:31:24.056Z,44.17
2023-02-15T18:33:55.618Z,50.47
2023-02-15T18:36:32.545Z,48.90
2023-02-15T18:39:04.712Z,44.60
2023-02-15T18:41:34.186Z,48.53
2023-02-15T18:44:01.342Z,50.63
2023-02-15T18:46:28.772Z,48.30
2023-02-15T18:48:55.883Z,43.80
2023-02-15T18:51:23.957Z,47.10
2023-02-15T18:53:53.004Z,46.73
2023-02-15T18:56:21.801Z,40.97
2023-02-15T18:58:49.311Z,48.53
2023-02-15T19:01:17.830Z,44.87
2023-02-15T19:03:48.799Z,47.90
2023-02-15T19:06:17.937Z,50.97
2023-02-15T19:08:46.289Z,47.90
2023-02-15T19:11:15.920Z,49.00
2023-02-15T19:13:43.051Z,55.70
2023-02-15T19:16:14.396Z,54.30
2023-02-15T19:18:41.579Z,50.97
2023-02-15T19:21:12.818Z,47.80
2023-02-15T19:23:39.946Z,46.17
2023-02-15T19:26:07.114Z,55.90
2023-02-15T19:28:35.081Z,50.90
2023-02-15T19:31:02.450Z,57.07
2023-02-15T19:33:29.693Z,62.80
2023-02-15T19:35:57.397Z,50.07
2023-02-15T19:38:31.494Z,69.90
2023-02-15T19:41:02.085Z,55.93
2023-02-15T19:43:30.151Z,82.60
2023-02-15T19:45:57.321Z,62.83
2023-02-15T19:48:27.912Z,72.93
2023-02-15T19:50:57.288Z,56.37
2023-02-15T19:53:38.505Z,55.27
2023-02-15T19:56:12.124Z,46.47
2023-02-15T19:58:39.737Z,58.20
2023-02-15T20:01:07.311Z,60.57
2023-02-15T20:03:38.178Z,55.37
2023-02-15T20:06:05.619Z,42.47
2023-02-15T20:08:32.872Z,56.20
2023-02-15T20:11:00.042Z,75.77
2023-02-15T20:13:28.908Z,65.43
2023-02-15T20:15:56.109Z,56.63
2023-02-15T20:18:23.268Z,56.40
2023-02-15T20:20:55.505Z,100.07
2023-02-15T20:23:22.706Z,114.13
2023-02-15T20:25:50.455Z,74.17
2023-02-15T20:28:22.288Z,72.90
2023-02-15T20:30:49.917Z,134.17
2023-02-15T20:33:17.476Z,61.60
2023-02-15T20:35:45.428Z,119.67
2023-02-15T20:38:19.484Z,115.77
2023-02-15T20:41:05.782Z,194.87
2023-02-15T20:43:33.337Z,260.33
2023-02-15T20:46:00.714Z,95.73
2023-02-15T20:48:28.001Z,193.83
2023-02-15T20:50:55.989Z,112.60
2023-02-15T20:53:23.374Z,153.53
2023-02-15T20:55:50.600Z,156.13
2023-02-15T20:58:28.352Z,82.67
2023-02-15T21:00:56.643Z,125.30
2023-02-15T21:03:26.510Z,106.57
2023-02-15T21:05:53.685Z,116.00
2023-02-15T21:08:22.735Z,99.87
2023-02-15T21:10:51.440Z,69.13
2023-02-15T21:13:18.653Z,81.57
2023-02-15T21:15:45.808Z,68.93
2023-02-15T21:18:38.783Z,91.13
2023-02-15T21:21:06.429Z,68.70
2023-02-15T21:23:38.411Z,74.87
2023-02-15T21:26:05.910Z,75.47
2023-02-15T21:28:33.059Z,75.60
2023-02-15T21:31:00.357Z,79.63
2023-02-15T21:33:28.012Z,204.57
2023-02-15T21:35:56.546Z,196.83
2023-02-15T21:38:25.964Z,74.63
2023-02-15T21:40:53.128Z,103.50
2023-02-15T21:43:43.363Z,154.27
2023-02-15T21:46:33.439Z,85.60
2023-02-15T21:49:01.782Z,84.87
2023-02-15T21:51:48.190Z,80.97
2023-02-15T21:54:15.853Z,70.80
2023-02-15T21:56:43.067Z,65.20
2023-02-15T21:59:13.777Z,162.33
2023-02-15T22:01:46.686Z,89.53
2023-02-15T22:04:34.093Z,104.33
2023-02-15T22:07:01.225Z,150.53
2023-02-15T22:09:28.593Z,127.17
2023-02-15T22:11:55.836Z,121.93
2023-02-15T22:14:39.355Z,115.03
2023-02-15T22:17:14.819Z,93.07
2023-02-15T22:19:42.113Z,85.33
2023-02-15T22:22:09.241Z,63.07
2023-02-15T22:24:36.367Z,138.70
2023-02-15T22:27:03.539Z,174.93
2023-02-15T22:29:30.700Z,195.63
2023-02-15T22:31:57.977Z,102.43
2023-02-15T22:34:26.823Z,107.40
2023-02-15T22:36:54.633Z,126.27
2023-02-15T22:39:22.594Z,231.37
2023-02-15T22:41:49.878Z,92.47
2023-02-15T22:44:20.764Z,76.90
2023-02-15T22:46:47.955Z,169.77
2023-02-15T22:49:15.569Z,132.60
2023-02-15T22:51:43.014Z,112.70
2023-02-15T22:54:10.121Z,156.63
2023-02-15T22:56:41.679Z,75.20
2023-02-15T22:59:15.554Z,86.03
2023-02-15T23:01:42.734Z,107.53
2023-02-15T23:04:21.045Z,127.83
2023-02-15T23:06:48.317Z,129.03
2023-02-15T23:09:15.487Z,133.93
2023-02-15T23:11:42.942Z,117.00
2023-02-15T23:14:24.754Z,124.27
2023-02-15T23:16:51.927Z,159.13
2023-02-15T23:19:19.081Z,107.10
2023-02-15T23:21:46.585Z,131.97
2023-02-15T23:24:19.787Z,176.67
2023-02-15T23:26:47.639Z,107.07
2023-02-15T23:29:24.316Z,124.57
2023-02-15T23:31:54.262Z,131.27
2023-02-15T23:34:26.832Z,217.63
2023-02-15T23:36:54.027Z,187.80
2023-02-15T23:39:41.684Z,256.00
2023-02-15T23:42:11.877Z,202.87
2023-02-15T23:44:39.362Z,253.67
2023-02-15T23:47:07.167Z,196.70
2023-02-15T23:49:34.299Z,352.37
2023-02-15T23:52:01.716Z,253.57
2023-02-15T23:54:28.857Z,278.33
2023-02-15T23:56:58.182Z,210.53
2023-02-15T23:59:27.198Z,452.77
